Mixon, Texas
Current Conditions -  °F | °C
As of 7:35 AM on Saturday 25 Oct 2014 (Local Time) from KJSO Reporting Station
Clear Clear  
Wind Chill: 63°   Ceiling: Unl
Heat Index: 63°   Visibility: 10mi
Dew Point: 56°   Wind: 5mph
Humidity: 78%   Direction: 200°SSW
Pressure: 30.18"   Gusts: NA
Location:  32.0774°N, 95.1103°W
Report Text: KJSO 251235Z AUTO 20004KT 10SM CLR 17/13 A3018 RMK AO2 T01700131
Loading
Personal Weather Stations






























Interactive Weather Map
Tropical Storm Tracking
New forecast layout! Learn more

10-Day Weather Forecast

Advertisements
Track Severe Weather on mobile